createdAt,value
2019-01-19T00:00:56.099Z,16.10
2019-01-19T00:01:56.074Z,16.20
2019-01-19T00:02:56.053Z,17.20
2019-01-19T00:03:56.036Z,17.00
2019-01-19T00:04:56.005Z,16.50
2019-01-19T00:05:55.976Z,16.40
2019-01-19T00:06:55.955Z,17.80
2019-01-19T00:07:55.930Z,17.30
2019-01-19T00:08:55.904Z,17.20
2019-01-19T00:09:55.882Z,16.80
2019-01-19T00:10:55.856Z,17.60
2019-01-19T00:11:55.835Z,16.70
2019-01-19T00:12:55.808Z,17.10
2019-01-19T00:13:55.776Z,16.80
2019-01-19T00:14:55.759Z,17.10
2019-01-19T00:15:55.739Z,16.60
2019-01-19T00:16:55.710Z,16.30
2019-01-19T00:17:55.680Z,18.10
2019-01-19T00:18:55.666Z,16.60
2019-01-19T00:19:55.631Z,16.80
2019-01-19T00:20:55.620Z,17.20
2019-01-19T00:21:55.584Z,17.00
2019-01-19T00:22:55.568Z,16.50
2019-01-19T00:23:55.534Z,17.20
2019-01-19T00:24:55.509Z,16.50
2019-01-19T00:25:55.484Z,17.50
2019-01-19T00:26:55.463Z,17.70
2019-01-19T00:27:55.443Z,16.00
2019-01-19T00:28:55.417Z,17.30
2019-01-19T00:29:55.403Z,16.60
2019-01-19T00:30:55.379Z,16.10
2019-01-19T00:31:55.338Z,17.10
2019-01-19T00:32:55.318Z,16.90
2019-01-19T00:33:55.293Z,17.60
2019-01-19T00:34:55.290Z,17.00
2019-01-19T00:35:55.246Z,15.80
2019-01-19T00:36:55.233Z,16.40
2019-01-19T00:37:55.195Z,16.40
2019-01-19T00:38:55.169Z,16.40
2019-01-19T00:39:55.143Z,17.10
2019-01-19T00:40:55.121Z,15.30
2019-01-19T00:41:55.090Z,16.30
2019-01-19T00:42:55.074Z,16.20
2019-01-19T00:43:55.040Z,17.30
2019-01-19T00:44:55.024Z,17.00
2019-01-19T00:45:54.992Z,17.40
2019-01-19T00:46:54.980Z,17.70
2019-01-19T00:47:54.948Z,17.80
2019-01-19T00:48:54.917Z,18.50
2019-01-19T00:49:54.901Z,18.30
2019-01-19T00:50:54.875Z,20.50
2019-01-19T00:51:54.847Z,20.50
2019-01-19T00:52:54.820Z,21.00
2019-01-19T00:53:54.793Z,19.30
2019-01-19T00:54:54.768Z,20.00
2019-01-19T00:55:54.743Z,19.50
2019-01-19T00:56:54.719Z,19.20
2019-01-19T00:57:54.695Z,17.60
2019-01-19T00:58:54.671Z,18.00
2019-01-19T00:59:54.645Z,17.50
2019-01-19T01:00:54.617Z,18.40
2019-01-19T01:01:54.591Z,18.30
2019-01-19T01:02:54.565Z,18.40
2019-01-19T01:03:54.542Z,23.40
2019-01-19T01:04:54.517Z,23.00
2019-01-19T01:05:54.491Z,22.00
2019-01-19T01:06:54.470Z,25.50
2019-01-19T01:07:54.443Z,28.00
2019-01-19T01:08:54.423Z,27.00
2019-01-19T01:09:54.392Z,30.60
2019-01-19T01:10:54.367Z,25.80
2019-01-19T01:11:54.351Z,26.30
2019-01-19T01:12:54.319Z,23.10
2019-01-19T01:13:54.295Z,21.10
2019-01-19T01:14:54.274Z,21.60
2019-01-19T01:15:54.255Z,22.60
2019-01-19T01:16:54.219Z,22.20
2019-01-19T01:17:54.200Z,21.30
2019-01-19T01:18:54.177Z,20.30
2019-01-19T01:19:54.143Z,19.40
2019-01-19T01:20:54.121Z,21.30
2019-01-19T01:21:54.091Z,21.10
2019-01-19T01:22:54.072Z,20.90
2019-01-19T01:23:54.045Z,20.90
2019-01-19T01:24:54.022Z,20.70
2019-01-19T01:25:53.995Z,20.60
2019-01-19T01:26:53.975Z,20.90
2019-01-19T01:27:53.955Z,20.20
2019-01-19T01:28:53.922Z,20.20
2019-01-19T01:29:53.897Z,19.20
2019-01-19T01:30:53.871Z,20.80
2019-01-19T01:31:53.848Z,20.50
2019-01-19T01:32:53.821Z,20.90
2019-01-19T01:33:53.797Z,19.60
2019-01-19T01:34:53.772Z,20.50
2019-01-19T01:35:53.750Z,19.40
2019-01-19T01:36:53.727Z,17.10
2019-01-19T01:37:53.700Z,17.80
2019-01-19T01:38:53.671Z,16.50
2019-01-19T01:39:53.647Z,16.90
2019-01-19T01:40:53.623Z,18.50
2019-01-19T01:41:53.605Z,15.60
2019-01-19T01:42:53.572Z,16.10
2019-01-19T01:43:53.555Z,16.00
2019-01-19T01:44:53.526Z,16.60
2019-01-19T01:45:53.506Z,17.30
2019-01-19T01:46:53.478Z,15.80
2019-01-19T01:47:53.449Z,16.90
2019-01-19T01:48:53.424Z,16.00
2019-01-19T01:49:53.397Z,16.80
2019-01-19T01:50:53.377Z,16.50
2019-01-19T01:51:53.349Z,14.40
2019-01-19T01:52:53.374Z,15.90
2019-01-19T01:53:53.303Z,15.00
2019-01-19T01:54:53.276Z,15.40
2019-01-19T01:55:53.261Z,16.40
2019-01-19T01:56:53.226Z,16.20
2019-01-19T01:57:53.200Z,15.80
2019-01-19T01:58:53.176Z,17.00
2019-01-19T01:59:53.149Z,18.50
2019-01-19T02:00:53.126Z,21.40
2019-01-19T02:01:53.099Z,23.10
2019-01-19T02:02:53.078Z,26.90
2019-01-19T02:03:53.051Z,27.70
2019-01-19T02:04:53.030Z,30.50
2019-01-19T02:05:53.003Z,25.60
2019-01-19T02:06:52.986Z,22.60
2019-01-19T02:07:52.956Z,21.40
2019-01-19T02:08:52.942Z,22.70
2019-01-19T02:09:52.903Z,25.20
2019-01-19T02:10:52.881Z,25.80
2019-01-19T02:11:52.855Z,22.50
2019-01-19T02:12:52.832Z,25.50
2019-01-19T02:13:52.804Z,23.90
2019-01-19T02:14:52.779Z,22.70
2019-01-19T02:15:52.756Z,21.10
2019-01-19T02:16:52.728Z,21.50
2019-01-19T02:17:52.710Z,21.80
2019-01-19T02:18:52.681Z,20.80
2019-01-19T02:19:52.661Z,21.50
2019-01-19T02:20:52.631Z,19.90
2019-01-19T02:21:52.604Z,20.10
2019-01-19T02:22:52.577Z,21.00
2019-01-19T02:23:52.553Z,19.90
2019-01-19T02:24:52.537Z,19.10
2019-01-19T02:25:52.503Z,20.30
2019-01-19T02:26:52.492Z,19.50
2019-01-19T02:27:52.457Z,18.70
2019-01-19T02:28:52.441Z,18.90
2019-01-19T02:29:52.406Z,17.60
2019-01-19T02:30:52.381Z,17.10
2019-01-19T02:31:52.359Z,17.60
2019-01-19T02:32:52.337Z,17.50
2019-01-19T02:33:52.307Z,16.30
2019-01-19T02:34:52.282Z,17.10
2019-01-19T02:35:52.268Z,17.40
2019-01-19T02:36:52.231Z,16.50
2019-01-19T02:37:52.204Z,15.90
2019-01-19T02:38:52.186Z,16.60
2019-01-19T02:39:52.160Z,15.90
2019-01-19T02:40:52.135Z,16.00
2019-01-19T02:41:52.109Z,16.40
2019-01-19T02:42:52.085Z,17.10
2019-01-19T02:43:52.062Z,17.60
2019-01-19T02:44:52.033Z,16.70
2019-01-19T02:45:52.006Z,15.90
2019-01-19T02:46:51.987Z,15.60
2019-01-19T02:47:51.965Z,17.20
2019-01-19T02:48:51.933Z,17.10
2019-01-19T02:49:51.908Z,18.00
2019-01-19T02:50:51.883Z,15.90
2019-01-19T02:51:51.858Z,16.60
2019-01-19T02:52:51.832Z,17.20
2019-01-19T02:53:51.807Z,16.30
2019-01-19T02:54:51.782Z,16.60
2019-01-19T02:55:51.759Z,16.10
2019-01-19T02:56:51.733Z,16.40
2019-01-19T02:57:51.709Z,16.50
2019-01-19T02:58:51.693Z,15.90
2019-01-19T02:59:51.658Z,16.50
2019-01-19T03:00:51.634Z,17.10
2019-01-19T03:01:51.611Z,15.70
2019-01-19T03:02:51.588Z,16.20
2019-01-19T03:03:51.560Z,14.80
2019-01-19T03:04:51.533Z,16.00
2019-01-19T03:05:56.121Z,15.50
2019-01-19T03:06:51.481Z,15.80
2019-01-19T03:07:51.457Z,16.30
2019-01-19T03:08:51.433Z,15.80
2019-01-19T03:09:51.413Z,15.90
2019-01-19T03:10:51.386Z,14.50
2019-01-19T03:11:51.357Z,15.10
2019-01-19T03:12:51.334Z,14.60
2019-01-19T03:13:51.308Z,15.60
2019-01-19T03:14:51.283Z,15.60
2019-01-19T03:15:51.260Z,15.80
2019-01-19T03:16:51.234Z,15.80
2019-01-19T03:17:51.209Z,15.10
2019-01-19T03:18:51.187Z,16.30
2019-01-19T03:19:51.158Z,15.80
2019-01-19T03:20:51.132Z,16.10
2019-01-19T03:21:51.108Z,16.10
2019-01-19T03:22:51.090Z,16.60
2019-01-19T03:23:51.060Z,16.80
2019-01-19T03:24:51.033Z,19.50
2019-01-19T03:25:51.009Z,18.90
2019-01-19T03:26:50.985Z,20.80
2019-01-19T03:27:50.958Z,19.90
2019-01-19T03:28:50.940Z,20.00
2019-01-19T03:29:50.908Z,20.10
2019-01-19T03:30:50.888Z,19.60
2019-01-19T03:31:50.870Z,19.40
2019-01-19T03:32:50.840Z,18.80
2019-01-19T03:33:50.808Z,16.90
2019-01-19T03:34:50.786Z,17.00
2019-01-19T03:35:50.771Z,16.50
2019-01-19T03:36:50.735Z,15.00
2019-01-19T03:37:50.714Z,15.90
2019-01-19T03:38:50.683Z,16.20
2019-01-19T03:39:50.665Z,15.80
2019-01-19T03:40:50.643Z,15.70
2019-01-19T03:41:50.611Z,15.90
2019-01-19T03:42:50.661Z,15.40
2019-01-19T03:43:50.564Z,15.50
2019-01-19T03:44:50.535Z,15.10
2019-01-19T03:45:50.514Z,15.00
2019-01-19T03:46:50.489Z,14.80
2019-01-19T03:47:50.463Z,14.50
2019-01-19T03:48:50.448Z,14.60
2019-01-19T03:49:50.408Z,14.40
2019-01-19T03:50:50.464Z,14.30
2019-01-19T03:51:50.364Z,14.70
2019-01-19T03:52:50.338Z,14.60
2019-01-19T03:53:50.311Z,14.90
2019-01-19T03:54:50.289Z,14.10
2019-01-19T03:55:50.261Z,14.80
2019-01-19T03:56:50.237Z,14.70
2019-01-19T03:57:50.225Z,14.30
2019-01-19T03:58:50.184Z,13.90
2019-01-19T03:59:50.162Z,13.70
2019-01-19T04:00:50.144Z,14.60
2019-01-19T04:01:50.109Z,14.50
2019-01-19T04:02:50.084Z,14.50
2019-01-19T04:03:50.060Z,15.00
2019-01-19T04:04:50.036Z,14.30
2019-01-19T04:05:50.014Z,13.90
2019-01-19T04:06:49.992Z,14.00
2019-01-19T04:07:49.959Z,14.80
2019-01-19T04:08:50.088Z,14.10
2019-01-19T04:09:49.912Z,14.60
2019-01-19T04:10:49.885Z,13.80
2019-01-19T04:11:49.858Z,14.70
2019-01-19T04:12:49.837Z,14.90
2019-01-19T04:13:49.808Z,13.60
2019-01-19T04:14:49.781Z,14.30
2019-01-19T04:15:49.757Z,14.10
2019-01-19T04:16:49.742Z,14.60
2019-01-19T04:17:49.715Z,14.30
2019-01-19T04:18:49.682Z,13.80
2019-01-19T04:19:49.659Z,14.80
2019-01-19T04:20:49.639Z,13.00
2019-01-19T04:21:49.608Z,14.60
2019-01-19T04:22:49.594Z,13.70
2019-01-19T04:23:49.557Z,14.30
2019-01-19T04:24:49.538Z,14.20
2019-01-19T04:25:49.508Z,15.10
2019-01-19T04:26:49.481Z,12.90
2019-01-19T04:27:49.458Z,13.10
2019-01-19T04:28:49.431Z,14.30
2019-01-19T04:29:49.413Z,13.80
2019-01-19T04:30:49.679Z,14.60
2019-01-19T04:31:49.374Z,14.30
2019-01-19T04:32:49.331Z,13.80
2019-01-19T04:33:49.306Z,14.00
2019-01-19T04:34:49.287Z,13.40
2019-01-19T04:35:49.259Z,14.30
2019-01-19T04:36:49.231Z,13.20
2019-01-19T04:37:49.205Z,13.50
2019-01-19T04:38:49.186Z,13.70
2019-01-19T04:39:49.160Z,13.60
2019-01-19T04:40:49.131Z,13.30
2019-01-19T04:41:49.104Z,13.70
2019-01-19T04:42:49.089Z,13.50
2019-01-19T04:43:49.053Z,13.60
2019-01-19T04:44:49.031Z,13.90
2019-01-19T04:45:49.008Z,13.00
2019-01-19T04:46:48.979Z,13.40
2019-01-19T04:47:48.953Z,13.30
2019-01-19T04:48:48.930Z,13.00
2019-01-19T04:49:48.902Z,13.00
2019-01-19T04:50:48.888Z,13.10
2019-01-19T04:51:48.854Z,13.40
2019-01-19T04:52:48.832Z,13.10
2019-01-19T04:53:48.803Z,12.80
2019-01-19T04:54:48.786Z,12.80
2019-01-19T04:55:48.755Z,12.90
2019-01-19T04:56:48.726Z,13.00
2019-01-19T04:57:48.710Z,12.70
2019-01-19T04:58:48.677Z,13.10
2019-01-19T04:59:48.655Z,12.20
2019-01-19T05:00:48.631Z,12.80
2019-01-19T05:01:48.605Z,13.00
2019-01-19T05:02:48.583Z,12.50
2019-01-19T05:03:48.557Z,12.40
2019-01-19T05:04:48.524Z,13.00
2019-01-19T05:05:48.499Z,12.50
2019-01-19T05:06:48.481Z,12.70
2019-01-19T05:07:48.449Z,13.10
2019-01-19T05:08:48.425Z,11.60
2019-01-19T05:09:48.397Z,13.60
2019-01-19T05:10:48.378Z,12.60
2019-01-19T05:11:48.351Z,13.00
2019-01-19T05:12:48.328Z,12.70
2019-01-19T05:13:48.302Z,12.60
2019-01-19T05:14:48.286Z,12.00
2019-01-19T05:15:48.252Z,12.70
2019-01-19T05:16:48.230Z,12.20
2019-01-19T05:17:48.198Z,11.60
2019-01-19T05:18:48.173Z,11.50
2019-01-19T05:19:48.146Z,12.10
2019-01-19T05:20:48.123Z,11.80
2019-01-19T05:21:48.098Z,12.40
2019-01-19T05:22:48.073Z,11.80
2019-01-19T05:23:48.059Z,12.50
2019-01-19T05:24:48.024Z,12.30
2019-01-19T05:25:48.000Z,11.90
2019-01-19T05:26:47.973Z,12.00
2019-01-19T05:27:47.945Z,11.90
2019-01-19T05:28:47.923Z,12.00
2019-01-19T05:29:47.899Z,12.70
2019-01-19T05:30:47.868Z,12.20
2019-01-19T05:31:47.843Z,11.90
2019-01-19T05:32:47.823Z,12.00
2019-01-19T05:33:47.793Z,12.30
2019-01-19T05:34:47.771Z,12.30
2019-01-19T05:35:47.742Z,12.30
2019-01-19T05:36:47.718Z,11.50
2019-01-19T05:37:47.692Z,12.60
2019-01-19T05:38:47.670Z,12.00
2019-01-19T05:39:47.649Z,12.20
2019-01-19T05:40:47.619Z,11.80
2019-01-19T05:41:47.593Z,12.10
2019-01-19T05:42:47.571Z,12.20
2019-01-19T05:43:47.549Z,11.90
2019-01-19T05:44:47.517Z,12.50
2019-01-19T05:45:47.489Z,11.50
2019-01-19T05:46:47.469Z,11.10
2019-01-19T05:47:47.439Z,11.30
2019-01-19T05:48:47.418Z,12.00
2019-01-19T05:49:47.389Z,11.50
2019-01-19T05:50:47.363Z,12.20
2019-01-19T05:51:47.347Z,11.70
2019-01-19T05:52:47.321Z,11.80
2019-01-19T05:53:47.295Z,12.10
2019-01-19T05:54:47.261Z,12.20
2019-01-19T05:55:47.241Z,11.50
2019-01-19T05:56:47.211Z,12.30
2019-01-19T05:57:47.185Z,11.70
2019-01-19T05:58:47.163Z,12.20
2019-01-19T05:59:47.157Z,11.40
2019-01-19T06:00:47.111Z,11.90
2019-01-19T06:01:47.083Z,11.50
2019-01-19T06:02:47.065Z,11.80
2019-01-19T06:03:47.033Z,12.40
2019-01-19T06:04:47.011Z,12.20
2019-01-19T06:05:46.981Z,12.20
2019-01-19T06:06:47.380Z,12.00
2019-01-19T06:07:46.935Z,11.90
2019-01-19T06:08:46.908Z,12.00
2019-01-19T06:09:46.883Z,12.50
2019-01-19T06:10:46.860Z,12.10
2019-01-19T06:11:46.833Z,11.90
2019-01-19T06:12:46.810Z,12.30
2019-01-19T06:13:46.781Z,11.70
2019-01-19T06:14:46.755Z,12.30
2019-01-19T06:15:46.730Z,11.60
2019-01-19T06:16:46.706Z,12.50
2019-01-19T06:17:46.679Z,12.10
2019-01-19T06:18:46.652Z,12.00
2019-01-19T06:19:46.630Z,11.90
2019-01-19T06:20:46.608Z,12.20
2019-01-19T06:21:46.593Z,12.00
2019-01-19T06:22:46.555Z,11.90
2019-01-19T06:23:46.530Z,11.60
2019-01-19T06:24:46.510Z,12.30
2019-01-19T06:25:46.480Z,11.70
2019-01-19T06:26:46.454Z,12.20
2019-01-19T06:27:46.430Z,12.40
2019-01-19T06:28:46.415Z,12.10
2019-01-19T06:29:46.379Z,12.50
2019-01-19T06:30:46.349Z,12.10
2019-01-19T06:31:46.328Z,11.20
2019-01-19T06:32:46.308Z,11.50
2019-01-19T06:33:46.273Z,11.40
2019-01-19T06:34:46.246Z,11.40
2019-01-19T06:35:46.227Z,11.80
2019-01-19T06:36:46.197Z,12.40
2019-01-19T06:37:46.170Z,11.00
2019-01-19T06:38:46.147Z,11.40
2019-01-19T06:39:46.132Z,11.00
2019-01-19T06:40:46.098Z,11.10
2019-01-19T06:41:46.070Z,11.80
2019-01-19T06:42:46.044Z,11.60
2019-01-19T06:43:46.021Z,11.70
2019-01-19T06:44:46.678Z,11.90
2019-01-19T06:45:45.969Z,11.20
2019-01-19T06:46:45.944Z,11.60
2019-01-19T06:47:45.918Z,12.00
2019-01-19T06:48:45.893Z,11.70
2019-01-19T06:49:45.870Z,11.50
2019-01-19T06:50:45.849Z,11.70
2019-01-19T06:51:45.823Z,11.90
2019-01-19T06:52:45.797Z,11.90
2019-01-19T06:53:45.768Z,11.40
2019-01-19T06:54:45.746Z,11.80
2019-01-19T06:55:45.717Z,11.80
2019-01-19T06:56:45.695Z,11.90
2019-01-19T06:57:45.671Z,11.50
2019-01-19T06:58:45.645Z,11.60
2019-01-19T06:59:45.625Z,12.10
2019-01-19T07:00:45.597Z,11.70
2019-01-19T07:01:45.569Z,12.00
2019-01-19T07:02:45.542Z,12.20
2019-01-19T07:03:45.516Z,12.50
2019-01-19T07:04:45.491Z,11.90
2019-01-19T07:05:45.462Z,12.50
2019-01-19T07:06:45.437Z,12.20
2019-01-19T07:07:45.410Z,11.50
2019-01-19T07:08:45.390Z,11.80
2019-01-19T07:09:45.374Z,11.60
2019-01-19T07:10:45.338Z,12.70
2019-01-19T07:11:45.317Z,12.20
2019-01-19T07:12:45.289Z,11.40
2019-01-19T07:13:45.257Z,12.10
2019-01-19T07:14:45.239Z,11.90
2019-01-19T07:15:45.208Z,12.60
2019-01-19T07:16:45.185Z,12.10
2019-01-19T07:17:45.157Z,12.70
2019-01-19T07:18:45.134Z,12.40
2019-01-19T07:19:45.107Z,12.30
2019-01-19T07:20:45.090Z,12.30
2019-01-19T07:21:45.055Z,12.40
2019-01-19T07:22:45.029Z,12.00
2019-01-19T07:23:45.003Z,12.50
2019-01-19T07:24:44.979Z,13.30
2019-01-19T07:25:45.541Z,13.00
2019-01-19T07:26:44.932Z,12.30
2019-01-19T07:27:44.910Z,13.00
2019-01-19T07:28:44.881Z,14.00
2019-01-19T07:29:44.850Z,13.00
2019-01-19T07:30:44.837Z,14.60
2019-01-19T07:31:44.800Z,14.00
2019-01-19T07:32:44.778Z,13.90
2019-01-19T07:33:44.752Z,13.40
2019-01-19T07:34:44.732Z,12.30
2019-01-19T07:35:44.702Z,14.20
2019-01-19T07:36:44.681Z,13.90
2019-01-19T07:37:44.650Z,13.60
2019-01-19T07:38:44.627Z,13.60
2019-01-19T07:39:44.594Z,12.90
2019-01-19T07:40:44.569Z,12.90
2019-01-19T07:41:44.546Z,12.90
2019-01-19T07:42:44.518Z,13.20
2019-01-19T07:43:44.500Z,13.70
2019-01-19T07:44:44.468Z,13.10
2019-01-19T07:45:44.446Z,12.30
2019-01-19T07:46:44.422Z,12.80
2019-01-19T07:47:44.397Z,12.90
2019-01-19T07:48:44.374Z,13.10
2019-01-19T07:49:44.346Z,13.30
2019-01-19T07:50:44.324Z,13.30
2019-01-19T07:51:44.292Z,13.10
2019-01-19T07:52:44.265Z,77.30
2019-01-19T07:53:44.239Z,29.70
2019-01-19T07:54:44.213Z,30.50
2019-01-19T07:55:44.189Z,20.90
2019-01-19T07:56:44.169Z,23.30
2019-01-19T07:57:44.137Z,26.60
2019-01-19T07:58:44.115Z,23.60
2019-01-19T07:59:44.091Z,21.50
2019-01-19T08:00:44.065Z,13.70
2019-01-19T08:01:44.038Z,13.20
2019-01-19T08:02:44.012Z,13.20
2019-01-19T08:03:43.987Z,13.10
2019-01-19T08:04:43.962Z,13.80
2019-01-19T08:05:43.939Z,13.60
2019-01-19T08:06:43.910Z,13.50
2019-01-19T08:07:43.888Z,12.80
2019-01-19T08:08:43.872Z,12.60
2019-01-19T08:09:43.834Z,13.00
2019-01-19T08:10:43.823Z,13.70
2019-01-19T08:11:43.784Z,13.20
2019-01-19T08:12:43.757Z,13.50
2019-01-19T08:13:43.735Z,13.30
2019-01-19T08:14:43.708Z,13.60
2019-01-19T08:15:43.683Z,13.40
2019-01-19T08:16:43.669Z,14.30
2019-01-19T08:17:43.637Z,13.50
2019-01-19T08:18:43.609Z,13.90
2019-01-19T08:19:43.584Z,14.00
2019-01-19T08:20:43.561Z,13.10
2019-01-19T08:21:43.543Z,13.30
2019-01-19T08:22:43.510Z,12.70
2019-01-19T08:23:43.485Z,13.70
2019-01-19T08:24:43.465Z,13.80
2019-01-19T08:25:43.440Z,14.10
2019-01-19T08:26:43.413Z,14.00
2019-01-19T08:27:43.391Z,13.50
2019-01-19T08:28:43.362Z,14.10
2019-01-19T08:29:43.339Z,13.80
2019-01-19T08:30:43.315Z,14.00
2019-01-19T08:31:43.289Z,12.90
2019-01-19T08:32:43.277Z,13.00
2019-01-19T08:33:43.251Z,12.60
2019-01-19T08:34:43.219Z,14.10
2019-01-19T08:35:43.194Z,12.30
2019-01-19T08:36:43.182Z,13.60
2019-01-19T08:37:43.145Z,12.60
2019-01-19T08:38:43.124Z,12.70
2019-01-19T08:39:43.102Z,12.40
2019-01-19T08:40:43.082Z,11.40
2019-01-19T08:41:43.048Z,11.40
2019-01-19T08:42:43.025Z,11.70
2019-01-19T08:43:43.001Z,10.90
2019-01-19T08:44:42.979Z,10.80
2019-01-19T08:45:43.022Z,11.50
2019-01-19T08:46:42.931Z,11.40
2019-01-19T08:47:42.913Z,10.70
2019-01-19T08:48:42.895Z,10.50
2019-01-19T08:49:42.867Z,11.60
2019-01-19T08:50:42.848Z,10.40
2019-01-19T08:51:42.832Z,10.80
2019-01-19T08:52:42.802Z,10.60
2019-01-19T08:53:42.783Z,10.70
2019-01-19T08:54:42.761Z,10.40
2019-01-19T08:56:42.731Z,30.00
2019-01-19T08:57:42.703Z,12.10
2019-01-19T08:58:42.682Z,21.70
2019-01-19T08:59:42.662Z,12.00
2019-01-19T09:00:42.643Z,12.00
2019-01-19T09:01:42.616Z,11.60
2019-01-19T09:02:42.603Z,11.20
2019-01-19T09:03:42.581Z,10.40
2019-01-19T09:04:42.557Z,10.60
2019-01-19T09:05:42.537Z,9.90
2019-01-19T09:06:42.526Z,10.00
2019-01-19T09:07:42.505Z,9.80
2019-01-19T09:08:42.477Z,9.90
2019-01-19T09:09:42.455Z,10.00
2019-01-19T09:10:42.435Z,9.70
2019-01-19T09:11:42.420Z,9.60
2019-01-19T09:12:42.399Z,9.90
2019-01-19T09:13:42.378Z,10.00
2019-01-19T09:14:42.363Z,9.30
2019-01-19T09:15:42.338Z,9.00
2019-01-19T09:16:42.319Z,9.80
2019-01-19T09:17:42.298Z,9.20
2019-01-19T09:18:42.284Z,9.30
2019-01-19T09:19:42.264Z,9.60
2019-01-19T09:20:42.252Z,9.10
2019-01-19T09:21:42.227Z,9.50
2019-01-19T09:22:42.214Z,9.20
2019-01-19T09:23:42.201Z,9.10
2019-01-19T09:24:42.174Z,9.20
2019-01-19T09:25:42.166Z,9.50
2019-01-19T09:26:42.142Z,9.30
2019-01-19T09:27:42.125Z,9.60
2019-01-19T09:28:42.103Z,10.10
2019-01-19T09:29:42.099Z,9.90
2019-01-19T09:30:42.067Z,9.70
2019-01-19T09:31:42.055Z,9.90
2019-01-19T09:32:42.043Z,9.90
2019-01-19T09:33:42.027Z,9.80
2019-01-19T09:34:41.997Z,10.30
2019-01-19T09:35:41.978Z,10.30
2019-01-19T09:36:41.967Z,10.80
2019-01-19T09:37:41.951Z,11.30
2019-01-19T09:38:41.936Z,11.80
2019-01-19T09:39:41.911Z,10.90
2019-01-19T09:40:41.893Z,11.30
2019-01-19T09:41:41.878Z,11.20
2019-01-19T09:42:41.866Z,11.30
2019-01-19T09:43:41.851Z,11.40
2019-01-19T09:44:41.829Z,11.40
2019-01-19T09:45:41.807Z,10.30
2019-01-19T09:46:41.791Z,11.10
2019-01-19T09:47:41.778Z,10.90
2019-01-19T09:48:41.760Z,10.50
2019-01-19T09:49:41.744Z,10.20
2019-01-19T09:50:41.729Z,10.10
2019-01-19T09:51:41.730Z,10.40
2019-01-19T09:52:41.703Z,9.60
2019-01-19T09:53:41.684Z,9.90
2019-01-19T09:54:41.672Z,9.60
2019-01-19T09:55:41.656Z,9.50
2019-01-19T09:56:41.648Z,9.70
2019-01-19T09:57:41.636Z,10.10
2019-01-19T09:58:41.622Z,9.00
2019-01-19T09:59:41.600Z,9.10
2019-01-19T10:00:45.505Z,8.80
2019-01-19T10:01:41.576Z,9.20
2019-01-19T10:02:41.570Z,8.60
2019-01-19T10:03:41.549Z,9.00
2019-01-19T10:04:41.534Z,8.70
2019-01-19T10:05:41.526Z,8.70
2019-01-19T10:06:41.509Z,8.90
2019-01-19T10:07:48.259Z,8.70
2019-01-19T10:08:41.483Z,9.10
2019-01-19T10:09:41.469Z,9.00
2019-01-19T10:10:41.463Z,9.10
2019-01-19T10:11:41.450Z,9.60
2019-01-19T10:12:41.431Z,10.20
2019-01-19T10:13:41.428Z,9.90
2019-01-19T10:14:41.416Z,10.40
2019-01-19T10:15:41.397Z,11.00
2019-01-19T10:16:41.423Z,10.90
2019-01-19T10:17:41.368Z,10.40
2019-01-19T10:18:41.355Z,11.20
2019-01-19T10:19:41.350Z,10.30
2019-01-19T10:20:41.329Z,10.30
2019-01-19T10:21:41.316Z,10.50
2019-01-19T10:22:41.307Z,10.10
2019-01-19T10:23:41.290Z,10.60
2019-01-19T10:24:41.279Z,9.60
2019-01-19T10:25:41.262Z,9.50
2019-01-19T10:26:41.251Z,10.20
2019-01-19T10:27:41.250Z,9.30
2019-01-19T10:28:41.223Z,10.20
2019-01-19T10:29:41.212Z,9.80
2019-01-19T10:30:41.207Z,9.40
2019-01-19T10:31:41.187Z,9.30
2019-01-19T10:32:41.182Z,9.30
2019-01-19T10:33:41.154Z,9.50
2019-01-19T10:34:41.147Z,9.30
2019-01-19T10:35:41.130Z,9.10
2019-01-19T10:36:41.138Z,9.30
2019-01-19T10:37:41.099Z,9.00
2019-01-19T10:38:41.085Z,8.60
2019-01-19T10:39:41.082Z,8.20
2019-01-19T10:40:41.060Z,8.30
2019-01-19T10:41:41.293Z,8.50
2019-01-19T10:42:41.030Z,7.80
2019-01-19T10:43:41.013Z,8.30
2019-01-19T10:44:41.001Z,8.00
2019-01-19T10:45:40.988Z,7.80
2019-01-19T10:46:40.970Z,8.50
2019-01-19T10:47:40.955Z,7.80
2019-01-19T10:48:40.937Z,7.50
2019-01-19T10:49:40.931Z,7.40
2019-01-19T10:50:40.908Z,7.20
2019-01-19T10:51:40.890Z,7.30
2019-01-19T10:52:40.877Z,7.00
2019-01-19T10:53:40.863Z,7.00
2019-01-19T10:54:40.848Z,6.60
2019-01-19T10:55:40.831Z,6.80
2019-01-19T10:56:40.813Z,7.30
2019-01-19T10:57:40.797Z,6.80
2019-01-19T10:58:40.781Z,6.60
2019-01-19T10:59:40.764Z,6.80
2019-01-19T11:00:40.759Z,6.10
2019-01-19T11:01:40.742Z,6.50
2019-01-19T11:02:40.720Z,6.70
2019-01-19T11:03:40.709Z,7.00
2019-01-19T11:04:40.698Z,6.20
2019-01-19T11:05:40.669Z,6.00
2019-01-19T11:06:40.657Z,6.20
2019-01-19T11:07:40.643Z,6.50
2019-01-19T11:08:40.623Z,6.20
2019-01-19T11:09:40.608Z,6.20
2019-01-19T11:10:40.592Z,6.60
2019-01-19T11:11:40.575Z,6.60
2019-01-19T11:12:40.565Z,6.20
2019-01-19T11:13:40.552Z,6.30
2019-01-19T11:14:40.535Z,6.30
2019-01-19T11:15:40.513Z,6.40
2019-01-19T11:16:40.497Z,6.00
2019-01-19T11:17:40.482Z,5.80
2019-01-19T11:18:40.463Z,6.00
2019-01-19T11:19:40.448Z,5.90
2019-01-19T11:20:40.438Z,5.80
2019-01-19T11:21:40.418Z,5.90
2019-01-19T11:22:40.402Z,6.10
2019-01-19T11:23:40.387Z,5.90
2019-01-19T11:24:40.368Z,6.40
2019-01-19T11:25:40.352Z,6.30
2019-01-19T11:26:40.336Z,6.30
2019-01-19T11:27:40.324Z,6.10
2019-01-19T11:28:40.306Z,6.20
2019-01-19T11:29:40.285Z,6.20
2019-01-19T11:30:40.269Z,6.10
2019-01-19T11:31:40.308Z,5.90
2019-01-19T11:32:44.383Z,6.40
2019-01-19T11:33:40.215Z,6.00
2019-01-19T11:34:40.198Z,6.10
2019-01-19T11:35:40.183Z,5.80
2019-01-19T11:36:40.166Z,5.70
2019-01-19T11:37:40.155Z,5.70
2019-01-19T11:38:40.139Z,5.40
2019-01-19T11:39:40.124Z,5.50
2019-01-19T11:40:40.101Z,5.60
2019-01-19T11:41:40.093Z,5.00
2019-01-19T11:42:40.065Z,4.80
2019-01-19T11:43:40.062Z,5.20
2019-01-19T11:44:40.034Z,4.90
2019-01-19T11:45:40.020Z,4.90
2019-01-19T11:46:39.995Z,4.90
2019-01-19T11:47:39.984Z,5.00
2019-01-19T11:48:39.969Z,4.60
2019-01-19T11:49:39.941Z,4.80
2019-01-19T11:50:39.927Z,5.10
2019-01-19T11:51:39.906Z,4.90
2019-01-19T11:52:39.890Z,4.90
2019-01-19T11:53:39.872Z,4.40
2019-01-19T11:54:39.860Z,4.60
2019-01-19T11:55:39.839Z,4.50
2019-01-19T11:56:39.825Z,4.90
2019-01-19T11:57:39.803Z,4.90
2019-01-19T11:58:39.796Z,5.00
2019-01-19T11:59:39.767Z,5.00
2019-01-19T12:00:39.763Z,5.00
2019-01-19T12:01:39.735Z,4.80
2019-01-19T12:02:39.718Z,4.40
2019-01-19T12:03:39.711Z,5.20
2019-01-19T12:04:39.681Z,4.90
2019-01-19T12:05:39.669Z,4.90
2019-01-19T12:06:39.644Z,5.80
2019-01-19T12:07:39.628Z,5.30
2019-01-19T12:08:39.610Z,5.00
2019-01-19T12:09:41.130Z,5.00
2019-01-19T12:10:39.575Z,4.40
2019-01-19T12:11:39.559Z,5.00
2019-01-19T12:12:39.546Z,5.10
2019-01-19T12:13:39.521Z,4.80
2019-01-19T12:14:39.511Z,4.20
2019-01-19T12:15:39.491Z,4.60
2019-01-19T12:16:39.470Z,4.90
2019-01-19T12:17:39.455Z,4.50
2019-01-19T12:18:39.440Z,4.20
2019-01-19T12:19:39.421Z,4.30
2019-01-19T12:20:39.400Z,4.20
2019-01-19T12:21:39.381Z,4.60
2019-01-19T12:22:39.363Z,4.40
2019-01-19T12:23:39.357Z,4.20
2019-01-19T12:24:39.335Z,4.60
2019-01-19T12:25:39.322Z,4.50
2019-01-19T12:26:39.292Z,4.40
2019-01-19T12:27:39.274Z,4.20
2019-01-19T12:28:39.255Z,4.70
2019-01-19T12:29:39.235Z,4.60
2019-01-19T12:30:39.235Z,4.10
2019-01-19T12:31:39.219Z,4.20
2019-01-19T12:32:39.184Z,4.60
2019-01-19T12:33:39.162Z,4.90
2019-01-19T12:34:39.149Z,6.20
2019-01-19T12:35:39.127Z,12.00
2019-01-19T12:36:39.118Z,10.20
2019-01-19T12:37:39.085Z,7.60
2019-01-19T12:38:39.069Z,7.80
2019-01-19T12:39:39.057Z,5.90
2019-01-19T12:40:39.043Z,6.00
2019-01-19T12:41:39.018Z,6.90
2019-01-19T12:42:38.995Z,5.60
2019-01-19T12:43:38.980Z,5.50
2019-01-19T12:44:39.070Z,5.30
2019-01-19T12:45:38.936Z,4.70
2019-01-19T12:46:38.922Z,4.70
2019-01-19T12:47:38.913Z,5.10
2019-01-19T12:48:38.883Z,4.90
2019-01-19T12:49:38.861Z,5.10
2019-01-19T12:50:38.843Z,5.10
2019-01-19T12:51:38.827Z,4.90
2019-01-19T12:52:38.807Z,5.10
2019-01-19T12:53:38.794Z,5.90
2019-01-19T12:54:38.768Z,5.40
2019-01-19T12:55:38.746Z,5.60
2019-01-19T12:56:38.733Z,5.60
2019-01-19T12:57:38.709Z,5.80
2019-01-19T12:58:38.693Z,6.20
2019-01-19T12:59:38.673Z,7.10
2019-01-19T13:00:38.695Z,7.60